createdAt,value
2023-02-13T00:00:47.459Z,5.30
2023-02-13T00:03:14.898Z,5.30
2023-02-13T00:05:42.158Z,5.30
2023-02-13T00:08:09.148Z,5.20
2023-02-13T00:10:36.718Z,5.20
2023-02-13T00:13:03.632Z,5.30
2023-02-13T00:15:30.782Z,5.30
2023-02-13T00:17:57.728Z,5.30
2023-02-13T00:20:24.856Z,5.30
2023-02-13T00:22:51.785Z,5.30
2023-02-13T00:25:18.720Z,5.30
2023-02-13T00:27:45.660Z,5.20
2023-02-13T00:30:13.233Z,5.00
2023-02-13T00:32:40.120Z,5.10
2023-02-13T00:35:07.262Z,5.10
2023-02-13T00:37:34.616Z,5.10
2023-02-13T00:40:06.637Z,5.00
2023-02-13T00:42:33.614Z,5.00
2023-02-13T00:45:00.728Z,4.80
2023-02-13T00:47:27.900Z,4.50
2023-02-13T00:49:54.905Z,4.30
2023-02-13T00:52:22.024Z,4.20
2023-02-13T00:54:48.999Z,4.10
2023-02-13T00:57:15.926Z,4.10
2023-02-13T00:59:42.854Z,4.10
2023-02-13T01:02:09.796Z,4.10
2023-02-13T01:04:36.906Z,4.10
2023-02-13T01:07:07.430Z,4.20
2023-02-13T01:09:34.413Z,4.30
2023-02-13T01:12:05.794Z,4.40
2023-02-13T01:14:32.777Z,4.50
2023-02-13T01:16:59.921Z,4.50
2023-02-13T01:19:27.975Z,4.60
2023-02-13T01:21:54.900Z,4.60
2023-02-13T01:24:22.051Z,4.70
2023-02-13T01:26:48.979Z,4.70
2023-02-13T01:29:15.937Z,4.60
2023-02-13T01:31:42.974Z,4.50
2023-02-13T01:34:10.051Z,4.50
2023-02-13T01:36:36.991Z,4.60
2023-02-13T01:39:04.070Z,4.60
2023-02-13T01:41:31.449Z,4.60
2023-02-13T01:44:05.559Z,4.40
2023-02-13T01:46:47.955Z,4.30
2023-02-13T01:49:27.554Z,4.30
2023-02-13T01:51:56.827Z,4.30
2023-02-13T01:54:31.495Z,4.20
2023-02-13T01:57:27.105Z,4.20
2023-02-13T02:00:07.985Z,4.10
2023-02-13T02:02:38.452Z,4.10
2023-02-13T02:05:11.321Z,4.00
2023-02-13T02:07:39.724Z,4.00
2023-02-13T02:10:11.681Z,4.00
2023-02-13T02:12:52.218Z,4.00
2023-02-13T02:15:19.497Z,4.10
2023-02-13T02:17:46.409Z,4.20
2023-02-13T02:20:25.198Z,4.20
2023-02-13T02:22:58.991Z,4.20
2023-02-13T02:25:50.230Z,4.10
2023-02-13T02:28:47.238Z,4.00
2023-02-13T02:31:33.044Z,4.00
2023-02-13T02:34:20.637Z,3.90
2023-02-13T02:37:27.284Z,3.80
2023-02-13T02:40:08.573Z,3.80
2023-02-13T02:43:04.676Z,3.70
2023-02-13T02:45:46.065Z,3.70
2023-02-13T02:48:57.095Z,3.70
2023-02-13T02:51:39.287Z,3.60
2023-02-13T02:54:27.791Z,3.70
2023-02-13T02:56:59.374Z,3.60
2023-02-13T02:59:48.907Z,3.50
2023-02-13T03:02:35.757Z,3.40
2023-02-13T03:05:27.074Z,3.30
2023-02-13T03:07:54.061Z,3.30
2023-02-13T03:10:49.795Z,3.20
2023-02-13T03:13:33.243Z,3.30
2023-02-13T03:16:20.020Z,3.40
2023-02-13T03:19:16.553Z,3.40
2023-02-13T03:22:14.259Z,3.30
2023-02-13T03:24:59.692Z,3.30
2023-02-13T03:27:49.446Z,3.20
2023-02-13T03:30:47.901Z,3.30
2023-02-13T03:33:31.706Z,3.40
2023-02-13T03:36:17.285Z,3.40
2023-02-13T03:38:57.910Z,3.40
2023-02-13T03:41:32.050Z,3.40
2023-02-13T03:44:18.856Z,3.40
2023-02-13T03:46:49.980Z,3.30
2023-02-13T03:49:49.883Z,3.30
2023-02-13T03:52:53.459Z,3.30
2023-02-13T03:55:51.854Z,3.30
2023-02-13T03:58:47.113Z,3.20
2023-02-13T04:01:19.304Z,3.00
2023-02-13T04:03:49.815Z,3.00
2023-02-13T04:06:27.438Z,3.00
2023-02-13T04:08:54.362Z,3.00
2023-02-13T04:11:57.060Z,3.10
2023-02-13T04:14:27.743Z,3.00
2023-02-13T04:17:04.114Z,2.90
2023-02-13T04:19:32.933Z,2.80
2023-02-13T04:22:07.294Z,2.90
2023-02-13T04:24:34.278Z,3.00
2023-02-13T04:27:01.911Z,3.00
2023-02-13T04:29:28.923Z,2.90
2023-02-13T04:31:55.876Z,2.80
2023-02-13T04:34:22.880Z,2.80
2023-02-13T04:36:49.910Z,2.70
2023-02-13T04:39:17.047Z,2.80
2023-02-13T04:41:44.396Z,2.80
2023-02-13T04:44:11.397Z,2.90
2023-02-13T04:46:38.297Z,2.90
2023-02-13T04:49:05.349Z,2.80
2023-02-13T04:51:32.309Z,2.70
2023-02-13T04:53:59.242Z,2.70
2023-02-13T04:56:26.157Z,2.70
2023-02-13T04:58:53.134Z,2.60
2023-02-13T05:01:20.066Z,2.60
2023-02-13T05:03:47.073Z,2.60
2023-02-13T05:06:14.037Z,2.60
2023-02-13T05:08:43.214Z,2.60
2023-02-13T05:11:13.046Z,2.60
2023-02-13T05:13:39.946Z,2.50
2023-02-13T05:16:08.132Z,2.50
2023-02-13T05:18:35.097Z,2.40
2023-02-13T05:21:20.532Z,2.40
2023-02-13T05:23:47.477Z,2.50
2023-02-13T05:26:14.426Z,2.50
2023-02-13T05:28:59.894Z,2.60
2023-02-13T05:31:28.024Z,2.50
2023-02-13T05:33:55.014Z,2.40
2023-02-13T05:36:21.963Z,2.40
2023-02-13T05:38:48.994Z,2.50
2023-02-13T05:41:15.912Z,2.40
2023-02-13T05:43:42.963Z,2.40
2023-02-13T05:46:10.620Z,2.30
2023-02-13T05:48:37.592Z,2.40
2023-02-13T05:51:04.703Z,2.40
2023-02-13T05:53:37.552Z,2.50
2023-02-13T05:56:08.168Z,2.50
2023-02-13T05:58:35.237Z,2.50
2023-02-13T06:01:05.615Z,2.50
2023-02-13T06:03:32.806Z,2.50
2023-02-13T06:06:00.124Z,2.50
2023-02-13T06:08:27.075Z,2.60
2023-02-13T06:10:54.388Z,2.60
2023-02-13T06:13:26.398Z,2.50
2023-02-13T06:15:53.537Z,2.50
2023-02-13T06:18:20.521Z,2.40
2023-02-13T06:20:48.165Z,2.40
2023-02-13T06:23:15.238Z,2.40
2023-02-13T06:25:44.530Z,2.30
2023-02-13T06:28:11.481Z,2.20
2023-02-13T06:30:38.658Z,2.20
2023-02-13T06:33:05.650Z,2.10
2023-02-13T06:35:32.571Z,1.90
2023-02-13T06:37:59.490Z,1.80
2023-02-13T06:40:26.496Z,1.70
2023-02-13T06:42:54.339Z,1.80
2023-02-13T06:45:32.324Z,1.70
2023-02-13T06:47:59.350Z,1.70
2023-02-13T06:50:26.921Z,1.70
2023-02-13T06:52:53.926Z,1.60
2023-02-13T06:55:21.144Z,1.60
2023-02-13T06:57:49.865Z,1.60
2023-02-13T07:00:18.281Z,1.50
2023-02-13T07:02:48.275Z,1.50
2023-02-13T07:05:15.623Z,1.40
2023-02-13T07:07:44.046Z,1.40
2023-02-13T07:10:13.125Z,1.40
2023-02-13T07:12:40.232Z,1.50
2023-02-13T07:15:08.343Z,1.50
2023-02-13T07:17:36.459Z,1.50
2023-02-13T07:20:08.593Z,1.60
2023-02-13T07:22:35.739Z,1.60
2023-02-13T07:25:03.348Z,1.60
2023-02-13T07:27:30.467Z,1.60
2023-02-13T07:29:57.727Z,1.50
2023-02-13T07:32:25.453Z,1.50
2023-02-13T07:35:01.713Z,1.50
2023-02-13T07:37:32.907Z,1.50
2023-02-13T07:39:59.899Z,1.60
2023-02-13T07:42:26.945Z,1.80
2023-02-13T07:44:53.999Z,1.70
2023-02-13T07:47:21.131Z,1.80
2023-02-13T07:49:48.066Z,1.90
2023-02-13T07:52:15.097Z,1.90
2023-02-13T07:54:48.016Z,2.00
2023-02-13T07:57:18.044Z,2.10
2023-02-13T07:59:45.752Z,2.30
2023-02-13T08:02:16.232Z,2.50
2023-02-13T08:04:48.490Z,2.60
2023-02-13T08:07:16.960Z,2.70
2023-02-13T08:10:07.734Z,2.90
2023-02-13T08:12:36.623Z,3.00
2023-02-13T08:15:04.798Z,3.20
2023-02-13T08:17:31.784Z,3.40
2023-02-13T08:19:58.774Z,3.60
2023-02-13T08:22:25.903Z,3.50
2023-02-13T08:24:53.121Z,3.40
2023-02-13T08:27:20.535Z,3.50
2023-02-13T08:29:50.083Z,3.80
2023-02-13T08:32:17.924Z,3.80
2023-02-13T08:34:48.684Z,3.70
2023-02-13T08:37:16.194Z,3.80
2023-02-13T08:39:44.874Z,4.00
2023-02-13T08:42:15.216Z,4.20
2023-02-13T08:44:53.650Z,4.30
2023-02-13T08:47:20.791Z,4.50
2023-02-13T08:49:47.798Z,4.40
2023-02-13T08:52:14.818Z,4.50
2023-02-13T08:54:46.695Z,4.20
2023-02-13T08:57:13.659Z,3.90
2023-02-13T08:59:41.422Z,3.90
2023-02-13T09:02:14.856Z,4.10
2023-02-13T09:04:50.460Z,4.50
2023-02-13T09:07:17.452Z,5.00
2023-02-13T09:09:46.043Z,5.50
2023-02-13T09:12:13.587Z,5.90
2023-02-13T09:14:41.296Z,6.30
2023-02-13T09:17:12.237Z,6.50
2023-02-13T09:19:39.336Z,6.80
2023-02-13T09:22:09.183Z,7.00
2023-02-13T09:24:36.206Z,7.20
2023-02-13T09:27:05.041Z,7.50
2023-02-13T09:29:33.930Z,7.70
2023-02-13T09:32:01.002Z,7.80
2023-02-13T09:34:28.172Z,7.70
2023-02-13T09:36:55.261Z,8.00
2023-02-13T09:39:22.204Z,8.00
2023-02-13T09:41:52.661Z,8.30
2023-02-13T09:44:34.514Z,8.30
2023-02-13T09:47:06.938Z,8.80
2023-02-13T09:49:38.866Z,8.90
2023-02-13T09:52:05.837Z,9.40
2023-02-13T09:54:32.931Z,9.50
2023-02-13T09:57:07.388Z,9.30
2023-02-13T09:59:39.855Z,9.10
2023-02-13T10:02:41.400Z,9.30
2023-02-13T10:05:29.729Z,9.60
2023-02-13T10:08:24.316Z,10.10
2023-02-13T10:11:01.388Z,10.50
2023-02-13T10:14:01.990Z,10.30
2023-02-13T10:17:04.318Z,10.10
2023-02-13T10:19:49.516Z,10.50
2023-02-13T10:22:23.605Z,10.60
2023-02-13T10:25:17.442Z,10.70
2023-02-13T10:27:59.058Z,10.90
2023-02-13T10:30:33.463Z,11.20
2023-02-13T10:33:29.975Z,11.70
2023-02-13T10:36:11.915Z,11.70
2023-02-13T10:38:44.521Z,12.00
2023-02-13T10:41:25.537Z,12.50
2023-02-13T10:43:55.453Z,12.50
2023-02-13T10:46:29.101Z,12.40
2023-02-13T10:49:04.930Z,12.30
2023-02-13T10:51:38.079Z,12.20
2023-02-13T10:54:10.812Z,12.40
2023-02-13T10:56:40.479Z,12.40
2023-02-13T10:59:26.283Z,12.30
2023-02-13T11:02:01.581Z,12.80
2023-02-13T11:04:30.015Z,13.10
2023-02-13T11:07:00.534Z,13.10
2023-02-13T11:09:28.367Z,13.40
2023-02-13T11:11:55.532Z,13.30
2023-02-13T11:14:25.107Z,13.70
2023-02-13T11:17:07.673Z,13.80
2023-02-13T11:19:36.849Z,13.90
2023-02-13T11:22:16.203Z,13.80
2023-02-13T11:24:53.704Z,13.90
2023-02-13T11:27:26.940Z,14.00
2023-02-13T11:30:00.051Z,14.40
2023-02-13T11:32:29.272Z,14.50
2023-02-13T11:34:56.703Z,14.80
2023-02-13T11:37:31.726Z,15.00
2023-02-13T11:40:00.598Z,15.30
2023-02-13T11:42:31.821Z,15.40
2023-02-13T11:45:23.108Z,15.20
2023-02-13T11:47:50.524Z,15.20
2023-02-13T11:50:30.330Z,15.50
2023-02-13T11:53:07.772Z,15.20
2023-02-13T11:55:38.375Z,15.50
2023-02-13T11:58:25.317Z,15.60
2023-02-13T12:01:10.796Z,15.30
2023-02-13T12:03:38.981Z,15.20
2023-02-13T12:06:13.373Z,15.20
2023-02-13T12:08:48.276Z,15.30
2023-02-13T12:11:25.316Z,15.30
2023-02-13T12:13:52.745Z,15.30
2023-02-13T12:16:38.652Z,15.20
2023-02-13T12:19:10.934Z,15.10
2023-02-13T12:22:05.137Z,15.10
2023-02-13T12:25:10.012Z,15.10
2023-02-13T12:28:10.780Z,15.30
2023-02-13T12:30:43.780Z,15.10
2023-02-13T12:33:44.692Z,15.00
2023-02-13T12:36:32.816Z,15.30
2023-02-13T12:39:18.971Z,15.60
2023-02-13T12:41:53.729Z,16.00
2023-02-13T12:44:41.556Z,15.90
2023-02-13T12:47:22.515Z,16.20
2023-02-13T12:50:07.763Z,16.00
2023-02-13T12:53:11.101Z,15.70
2023-02-13T12:56:16.313Z,15.90
2023-02-13T12:59:05.278Z,16.10
2023-02-13T13:02:04.803Z,16.00
2023-02-13T13:05:13.593Z,15.90
2023-02-13T13:07:53.377Z,16.40
2023-02-13T13:10:29.106Z,16.60
2023-02-13T13:13:18.989Z,16.50
2023-02-13T13:16:27.151Z,16.50
2023-02-13T13:19:27.306Z,16.50
2023-02-13T13:22:10.978Z,16.90
2023-02-13T13:24:57.400Z,17.10
2023-02-13T13:27:36.211Z,17.30
2023-02-13T13:30:13.316Z,17.50
2023-02-13T13:32:41.904Z,17.20
2023-02-13T13:35:15.556Z,16.90
2023-02-13T13:38:06.949Z,17.20
2023-02-13T13:40:33.895Z,17.50
2023-02-13T13:43:08.378Z,17.60
2023-02-13T13:45:47.509Z,17.60
2023-02-13T13:48:26.442Z,17.20
2023-02-13T13:50:54.366Z,17.40
2023-02-13T13:53:25.598Z,17.50
2023-02-13T13:55:58.695Z,17.20
2023-02-13T13:58:33.445Z,17.40
2023-02-13T14:01:21.294Z,17.40
2023-02-13T14:03:48.942Z,17.50
2023-02-13T14:06:19.156Z,17.20
2023-02-13T14:08:49.698Z,17.30
2023-02-13T14:11:33.718Z,17.30
2023-02-13T14:14:02.203Z,17.20
2023-02-13T14:16:40.276Z,17.00
2023-02-13T14:19:25.153Z,17.20
2023-02-13T14:21:52.517Z,17.20
2023-02-13T14:24:28.652Z,17.30
2023-02-13T14:27:05.332Z,17.60
2023-02-13T14:29:34.721Z,17.60
2023-02-13T14:32:14.154Z,17.80
2023-02-13T14:34:41.551Z,17.80
2023-02-13T14:37:13.024Z,17.60
2023-02-13T14:39:43.438Z,17.70
2023-02-13T14:42:29.538Z,17.60
2023-02-13T14:44:58.975Z,17.70
2023-02-13T14:47:32.032Z,17.70
2023-02-13T14:50:02.324Z,17.60
2023-02-13T14:52:40.233Z,17.40
2023-02-13T14:55:36.425Z,17.30
2023-02-13T14:58:09.158Z,17.10
2023-02-13T15:00:46.138Z,16.90
2023-02-13T15:03:38.510Z,16.90
2023-02-13T15:06:14.290Z,16.80
2023-02-13T15:08:49.506Z,16.80
2023-02-13T15:11:36.487Z,16.90
2023-02-13T15:14:27.907Z,17.00
2023-02-13T15:17:01.870Z,17.20
2023-02-13T15:19:29.633Z,17.20
2023-02-13T15:22:00.676Z,17.30
2023-02-13T15:24:33.089Z,17.40
2023-02-13T15:27:08.697Z,17.40
2023-02-13T15:29:49.198Z,17.30
2023-02-13T15:32:26.277Z,17.20
2023-02-13T15:34:53.598Z,17.10
2023-02-13T15:37:25.592Z,16.80
2023-02-13T15:39:52.659Z,16.70
2023-02-13T15:42:22.750Z,16.90
2023-02-13T15:44:53.167Z,16.80
2023-02-13T15:47:30.534Z,16.80
2023-02-13T15:49:58.185Z,16.60
2023-02-13T15:52:38.813Z,16.50
2023-02-13T15:55:06.170Z,16.30
2023-02-13T15:57:33.976Z,16.10
2023-02-13T16:00:03.143Z,15.60
2023-02-13T16:02:45.598Z,15.50
2023-02-13T16:05:15.024Z,15.30
2023-02-13T16:07:54.901Z,15.10
2023-02-13T16:10:36.536Z,14.70
2023-02-13T16:13:06.942Z,14.20
2023-02-13T16:15:37.256Z,14.00
2023-02-13T16:18:06.343Z,14.00
2023-02-13T16:20:35.382Z,14.10
2023-02-13T16:23:16.044Z,13.80
2023-02-13T16:25:46.247Z,13.50
2023-02-13T16:28:21.079Z,13.30
2023-02-13T16:31:19.019Z,13.10
2023-02-13T16:33:46.326Z,12.80
2023-02-13T16:36:13.197Z,12.40
2023-02-13T16:38:45.341Z,12.10
2023-02-13T16:41:25.867Z,11.90
2023-02-13T16:43:55.203Z,11.50
2023-02-13T16:46:42.991Z,11.20
2023-02-13T16:49:10.074Z,11.00
2023-02-13T16:51:52.135Z,10.90
2023-02-13T16:54:24.777Z,10.60
2023-02-13T16:56:59.070Z,10.30
2023-02-13T16:59:30.484Z,10.10
2023-02-13T17:02:20.192Z,9.90
2023-02-13T17:04:50.473Z,9.70
2023-02-13T17:07:33.657Z,9.40
2023-02-13T17:10:08.704Z,9.30
2023-02-13T17:12:38.375Z,9.10
2023-02-13T17:15:13.265Z,8.90
2023-02-13T17:17:40.361Z,8.90
2023-02-13T17:20:08.843Z,8.80
2023-02-13T17:22:42.566Z,8.60
2023-02-13T17:25:22.569Z,8.50
2023-02-13T17:27:51.922Z,8.30
2023-02-13T17:30:28.709Z,8.20
2023-02-13T17:33:09.076Z,8.20
2023-02-13T17:35:36.131Z,8.30
2023-02-13T17:38:03.156Z,8.20
2023-02-13T17:40:32.017Z,8.00
2023-02-13T17:42:59.849Z,7.80
2023-02-13T17:45:29.842Z,7.70
2023-02-13T17:47:59.637Z,7.50
2023-02-13T17:50:30.989Z,7.50
2023-02-13T17:53:01.474Z,7.40
2023-02-13T17:55:30.183Z,7.40
2023-02-13T17:57:58.575Z,7.30
2023-02-13T18:00:31.235Z,7.20
2023-02-13T18:02:59.745Z,7.10
2023-02-13T18:05:28.058Z,7.00
2023-02-13T18:07:55.229Z,7.10
2023-02-13T18:10:29.929Z,7.00
2023-02-13T18:13:08.526Z,7.00
2023-02-13T18:15:40.246Z,6.90
2023-02-13T18:18:07.856Z,6.70
2023-02-13T18:20:34.978Z,6.60
2023-02-13T18:23:01.961Z,6.50
2023-02-13T18:25:29.249Z,6.40
2023-02-13T18:27:56.536Z,6.40
2023-02-13T18:30:23.926Z,6.40
2023-02-13T18:32:53.418Z,6.40
2023-02-13T18:35:21.148Z,6.30
2023-02-13T18:37:48.229Z,6.20
2023-02-13T18:40:17.235Z,6.10
2023-02-13T18:42:44.777Z,6.00
2023-02-13T18:45:12.240Z,6.00
2023-02-13T18:47:39.371Z,5.90
2023-02-13T18:50:07.124Z,5.80
2023-02-13T18:52:35.227Z,5.70
2023-02-13T18:55:03.064Z,5.60
2023-02-13T18:57:30.034Z,5.50
2023-02-13T18:59:57.142Z,5.40
2023-02-13T19:02:26.045Z,5.40
2023-02-13T19:04:53.263Z,5.30
2023-02-13T19:07:20.259Z,5.40
2023-02-13T19:09:47.719Z,5.50
2023-02-13T19:12:14.726Z,5.40
2023-02-13T19:14:41.671Z,5.20
2023-02-13T19:17:09.481Z,5.20
2023-02-13T19:19:36.948Z,5.10
2023-02-13T19:22:04.221Z,5.10
2023-02-13T19:24:31.264Z,5.00
2023-02-13T19:26:58.219Z,5.00
2023-02-13T19:29:25.336Z,4.90
2023-02-13T19:31:52.308Z,4.90
2023-02-13T19:34:19.402Z,4.90
2023-02-13T19:36:46.394Z,4.80
2023-02-13T19:39:13.453Z,4.80
2023-02-13T19:41:44.266Z,4.80
2023-02-13T19:44:11.418Z,4.90
2023-02-13T19:46:38.834Z,4.80
2023-02-13T19:49:06.221Z,4.70
2023-02-13T19:51:35.098Z,4.70
2023-02-13T19:54:07.402Z,4.60
2023-02-13T19:56:36.823Z,4.60
2023-02-13T19:59:06.881Z,4.50
2023-02-13T20:01:33.874Z,4.50
2023-02-13T20:04:00.960Z,4.60
2023-02-13T20:06:32.064Z,4.70
2023-02-13T20:09:01.972Z,4.80
2023-02-13T20:11:29.190Z,4.70
2023-02-13T20:14:00.803Z,4.70
2023-02-13T20:16:33.087Z,4.60
2023-02-13T20:19:03.246Z,4.40
2023-02-13T20:21:30.219Z,4.30
2023-02-13T20:23:57.199Z,4.30
2023-02-13T20:26:24.848Z,4.30
2023-02-13T20:28:51.843Z,4.30
2023-02-13T20:31:22.646Z,4.30
2023-02-13T20:33:51.221Z,4.30
2023-02-13T20:36:20.543Z,4.30
2023-02-13T20:38:48.408Z,4.20
2023-02-13T20:41:17.965Z,4.10
2023-02-13T20:43:46.264Z,4.00
2023-02-13T20:46:17.582Z,4.10
2023-02-13T20:48:48.230Z,4.10
2023-02-13T20:51:17.116Z,4.10
2023-02-13T20:53:47.399Z,4.10
2023-02-13T20:56:20.652Z,4.10
2023-02-13T20:58:50.779Z,4.10
2023-02-13T21:01:23.153Z,4.00
2023-02-13T21:03:55.017Z,4.10
2023-02-13T21:06:24.722Z,4.20
2023-02-13T21:08:52.224Z,4.40
2023-02-13T21:11:20.060Z,4.40
2023-02-13T21:13:47.332Z,4.40
2023-02-13T21:16:20.735Z,4.40
2023-02-13T21:18:49.640Z,4.40
2023-02-13T21:21:18.229Z,4.40
2023-02-13T21:23:45.786Z,4.40
2023-02-13T21:26:15.983Z,4.40
2023-02-13T21:28:46.193Z,4.30
2023-02-13T21:31:19.793Z,4.40
2023-02-13T21:33:46.828Z,4.30
2023-02-13T21:36:13.778Z,4.30
2023-02-13T21:38:41.504Z,4.30
2023-02-13T21:41:17.076Z,4.20
2023-02-13T21:43:48.227Z,4.20
2023-02-13T21:46:23.567Z,4.20
2023-02-13T21:48:59.000Z,4.10
2023-02-13T21:51:28.490Z,4.10
2023-02-13T21:53:55.812Z,4.10
2023-02-13T21:56:28.203Z,4.20
2023-02-13T21:58:56.415Z,4.10
2023-02-13T22:01:27.311Z,4.00
2023-02-13T22:04:01.268Z,3.90
2023-02-13T22:06:30.559Z,3.90
2023-02-13T22:09:09.999Z,3.90
2023-02-13T22:11:37.365Z,3.80
2023-02-13T22:14:07.667Z,3.70
2023-02-13T22:16:37.123Z,3.70
2023-02-13T22:19:05.925Z,3.70
2023-02-13T22:21:34.686Z,3.70
2023-02-13T22:24:02.161Z,3.70
2023-02-13T22:26:34.852Z,3.70
2023-02-13T22:29:07.098Z,3.60
2023-02-13T22:31:35.434Z,3.50
2023-02-13T22:34:05.037Z,3.60
2023-02-13T22:36:39.657Z,3.60
2023-02-13T22:39:08.142Z,3.60
2023-02-13T22:41:35.389Z,3.50
2023-02-13T22:44:02.357Z,3.60
2023-02-13T22:46:31.383Z,3.60
2023-02-13T22:48:59.169Z,3.60
2023-02-13T22:51:30.729Z,3.60
2023-02-13T22:53:59.197Z,3.60
2023-02-13T22:56:28.060Z,3.60
2023-02-13T22:58:55.349Z,3.50
2023-02-13T23:01:24.525Z,3.50
2023-02-13T23:03:51.987Z,3.50
2023-02-13T23:06:20.160Z,3.50
2023-02-13T23:08:52.325Z,3.50
2023-02-13T23:11:39.833Z,3.50
2023-02-13T23:14:06.831Z,3.50
2023-02-13T23:16:54.620Z,3.50
2023-02-13T23:19:22.003Z,3.50
2023-02-13T23:21:49.502Z,3.50
2023-02-13T23:24:17.376Z,3.50
2023-02-13T23:26:44.588Z,3.50
2023-02-13T23:29:11.568Z,3.50
2023-02-13T23:31:38.873Z,3.50
2023-02-13T23:34:05.855Z,3.40
2023-02-13T23:36:34.549Z,3.30
2023-02-13T23:39:01.533Z,3.30
2023-02-13T23:41:28.653Z,3.40
2023-02-13T23:43:55.604Z,3.30
2023-02-13T23:46:22.568Z,3.20
2023-02-13T23:48:49.548Z,3.30
2023-02-13T23:51:18.441Z,3.20
2023-02-13T23:53:45.558Z,3.20
2023-02-13T23:56:12.504Z,3.10
2023-02-13T23:58:39.495Z,3.00
